createdAt,value
2018-06-04T00:00:31.087Z,100.00
2018-06-04T00:02:59.420Z,100.00
2018-06-04T00:05:27.828Z,100.00
2018-06-04T00:07:56.313Z,100.00
2018-06-04T00:10:24.684Z,100.00
2018-06-04T00:12:53.985Z,100.00
2018-06-04T00:15:22.345Z,100.00
2018-06-04T00:17:50.723Z,100.00
2018-06-04T00:20:19.098Z,100.00
2018-06-04T00:22:47.433Z,100.00
2018-06-04T00:25:15.766Z,100.00
2018-06-04T00:27:44.206Z,100.00
2018-06-04T00:30:13.479Z,100.00
2018-06-04T00:32:42.857Z,100.00
2018-06-04T00:35:12.072Z,100.00
2018-06-04T00:37:40.448Z,100.00
2018-06-04T00:40:09.746Z,100.00
2018-06-04T00:42:38.125Z,100.00
2018-06-04T00:45:07.429Z,100.00
2018-06-04T00:47:36.584Z,100.00
2018-06-04T00:50:05.975Z,100.00
2018-06-04T00:52:34.308Z,100.00
2018-06-04T00:55:04.541Z,100.00
2018-06-04T00:57:33.876Z,100.00
2018-06-04T01:00:03.138Z,100.00
2018-06-04T01:02:32.348Z,100.00
2018-06-04T01:05:01.430Z,100.00
2018-06-04T01:07:29.774Z,100.00
2018-06-04T01:09:58.185Z,100.00
2018-06-04T01:12:27.476Z,100.00
2018-06-04T01:14:56.777Z,100.00
2018-06-04T01:17:25.969Z,100.00
2018-06-04T01:19:55.330Z,100.00
2018-06-04T01:22:24.537Z,100.00
2018-06-04T01:24:53.869Z,100.00
2018-06-04T01:27:23.379Z,100.00
2018-06-04T01:29:52.631Z,100.00
2018-06-04T01:32:21.857Z,100.00
2018-06-04T01:34:50.187Z,100.00
2018-06-04T01:37:19.468Z,100.00
2018-06-04T01:39:48.896Z,100.00
2018-06-04T01:42:17.301Z,100.00
2018-06-04T01:44:46.632Z,100.00
2018-06-04T01:47:16.041Z,100.00
2018-06-04T01:49:45.336Z,100.00
2018-06-04T01:52:14.571Z,100.00
2018-06-04T01:54:43.856Z,100.00
2018-06-04T01:57:12.257Z,100.00
2018-06-04T01:59:40.648Z,100.00
2018-06-04T02:02:09.014Z,100.00
2018-06-04T02:04:38.230Z,100.00
2018-06-04T02:07:07.532Z,100.00
2018-06-04T02:09:35.909Z,100.00
2018-06-04T02:12:04.283Z,100.00
2018-06-04T02:14:32.608Z,100.00
2018-06-04T02:17:01.945Z,100.00
2018-06-04T02:19:31.213Z,100.00
2018-06-04T02:22:00.544Z,100.00
2018-06-04T02:24:29.707Z,100.00
2018-06-04T02:26:58.036Z,100.00
2018-06-04T02:29:26.461Z,100.00
2018-06-04T02:31:54.845Z,100.00
2018-06-04T02:34:23.181Z,100.00
2018-06-04T02:36:51.559Z,100.00
2018-06-04T02:39:20.780Z,100.00
2018-06-04T02:41:49.220Z,100.00
2018-06-04T02:44:17.536Z,100.00
2018-06-04T02:46:45.902Z,100.00
2018-06-04T02:49:14.243Z,100.00
2018-06-04T02:51:42.618Z,100.00
2018-06-04T02:54:12.003Z,100.00
2018-06-04T02:56:40.336Z,100.00
2018-06-04T02:59:09.708Z,100.00
2018-06-04T03:01:38.137Z,100.00
2018-06-04T03:04:07.152Z,100.00
2018-06-04T03:06:35.497Z,100.00
2018-06-04T03:09:04.618Z,100.00
2018-06-04T03:11:32.973Z,100.00
2018-06-04T03:14:01.357Z,100.00
2018-06-04T03:16:29.749Z,100.00
2018-06-04T03:18:58.084Z,100.00
2018-06-04T03:21:27.336Z,100.00
2018-06-04T03:23:56.564Z,100.00
2018-06-04T03:26:24.898Z,100.00
2018-06-04T03:28:54.109Z,100.00
2018-06-04T03:31:22.450Z,100.00
2018-06-04T03:33:50.789Z,100.00
2018-06-04T03:36:19.177Z,100.00
2018-06-04T03:38:47.600Z,100.00
2018-06-04T03:41:16.688Z,100.00
2018-06-04T03:43:45.075Z,100.00
2018-06-04T03:46:13.809Z,100.00
2018-06-04T03:48:43.160Z,100.00
2018-06-04T03:51:11.537Z,100.00
2018-06-04T03:53:41.611Z,100.00
2018-06-04T03:56:10.878Z,100.00
2018-06-04T03:58:40.148Z,100.00
2018-06-04T04:01:09.409Z,100.00
2018-06-04T04:03:38.612Z,100.00
2018-06-04T04:06:06.934Z,100.00
2018-06-04T04:08:36.277Z,100.00
2018-06-04T04:11:05.515Z,100.00
2018-06-04T04:13:34.774Z,100.00
2018-06-04T04:16:04.048Z,100.00
2018-06-04T04:18:33.272Z,100.00
2018-06-04T04:21:02.618Z,100.00
2018-06-04T04:23:30.989Z,100.00
2018-06-04T04:25:59.423Z,100.00
2018-06-04T04:28:28.833Z,100.00
2018-06-04T04:30:58.165Z,100.00
2018-06-04T04:33:27.434Z,100.00
2018-06-04T04:35:56.837Z,100.00
2018-06-04T04:38:26.113Z,100.00
2018-06-04T04:40:55.610Z,100.00
2018-06-04T04:43:24.939Z,100.00
2018-06-04T04:45:53.297Z,100.00
2018-06-04T04:48:21.901Z,100.00
2018-06-04T04:50:50.283Z,100.00
2018-06-04T04:53:18.649Z,100.00
2018-06-04T04:55:46.977Z,100.00
2018-06-04T04:58:16.198Z,100.00
2018-06-04T05:00:44.666Z,100.00
2018-06-04T05:03:14.026Z,100.00
2018-06-04T05:05:42.389Z,100.00
2018-06-04T05:08:11.660Z,100.00
2018-06-04T05:10:41.050Z,100.00
2018-06-04T05:13:09.520Z,100.00
2018-06-04T05:15:37.872Z,100.00
2018-06-04T05:18:06.204Z,100.00
2018-06-04T05:20:34.556Z,100.00
2018-06-04T05:23:03.009Z,100.00
2018-06-04T05:25:31.390Z,100.00
2018-06-04T05:27:59.734Z,100.00
2018-06-04T05:30:28.082Z,99.17
2018-06-04T05:32:56.414Z,99.41
2018-06-04T05:35:24.810Z,98.28
2018-06-04T05:37:53.141Z,91.68
2018-06-04T05:40:21.552Z,92.52
2018-06-04T05:42:49.961Z,93.74
2018-06-04T05:45:18.282Z,94.48
2018-06-04T05:47:46.608Z,95.34
2018-06-04T05:50:15.001Z,95.72
2018-06-04T05:52:43.364Z,93.83
2018-06-04T05:55:11.682Z,92.56
2018-06-04T05:57:40.020Z,93.09
2018-06-04T06:00:08.348Z,90.75
2018-06-04T06:02:36.688Z,89.53
2018-06-04T06:05:05.043Z,90.22
2018-06-04T06:07:33.374Z,90.85
2018-06-04T06:10:02.637Z,89.17
2018-06-04T06:12:30.961Z,90.22
2018-06-04T06:14:59.298Z,90.54
2018-06-04T06:17:27.896Z,86.53
2018-06-04T06:19:56.272Z,83.62
2018-06-04T06:22:25.481Z,83.34
2018-06-04T06:24:53.889Z,84.83
2018-06-04T06:27:23.198Z,82.19
2018-06-04T06:29:51.642Z,84.87
2018-06-04T06:32:19.970Z,79.14
2018-06-04T06:34:48.402Z,80.48
2018-06-04T06:37:17.017Z,81.52
2018-06-04T06:39:45.356Z,80.73
2018-06-04T06:42:13.911Z,80.84
2018-06-04T06:44:42.617Z,77.73
2018-06-04T06:47:11.232Z,81.92
2018-06-04T06:49:39.709Z,79.72
2018-06-04T06:52:08.269Z,78.98
2018-06-04T06:54:36.802Z,78.93
2018-06-04T06:57:05.153Z,80.73
2018-06-04T06:59:41.675Z,79.13
2018-06-04T07:02:11.293Z,79.60
2018-06-04T07:04:40.043Z,78.35
2018-06-04T07:07:08.474Z,80.89
2018-06-04T07:09:36.886Z,77.71
2018-06-04T07:12:06.352Z,77.83
2018-06-04T07:14:36.101Z,75.36
2018-06-04T07:17:05.462Z,73.88
2018-06-04T07:19:34.893Z,73.23
2018-06-04T07:22:04.216Z,78.53
2018-06-04T07:24:32.708Z,73.72
2018-06-04T07:27:01.285Z,78.37
2018-06-04T07:29:30.715Z,74.09
2018-06-04T07:31:59.209Z,75.38
2018-06-04T07:34:28.565Z,70.08
2018-06-04T07:36:57.914Z,71.26
2018-06-04T07:39:27.297Z,70.18
2018-06-04T07:41:55.763Z,70.79
2018-06-04T07:44:24.301Z,70.74
2018-06-04T07:46:52.781Z,69.21
2018-06-04T07:49:21.222Z,70.24
2018-06-04T07:51:50.650Z,70.73
2018-06-04T07:54:19.121Z,66.72
2018-06-04T07:56:48.521Z,67.65
2018-06-04T07:59:17.027Z,65.96
2018-06-04T08:01:45.509Z,65.91
2018-06-04T08:04:14.017Z,70.46
2018-06-04T08:06:42.405Z,69.75
2018-06-04T08:09:10.829Z,69.40
2018-06-04T08:11:40.104Z,67.53
2018-06-04T08:14:10.250Z,68.02
2018-06-04T08:16:39.587Z,65.22
2018-06-04T08:19:07.983Z,65.30
2018-06-04T08:21:37.336Z,65.61
2018-06-04T08:24:06.222Z,63.63
2018-06-04T08:26:34.796Z,62.81
2018-06-04T08:29:03.382Z,66.46
2018-06-04T08:31:31.822Z,63.60
2018-06-04T08:34:00.988Z,63.81
2018-06-04T08:36:30.690Z,65.12
2018-06-04T08:39:00.169Z,65.82
2018-06-04T08:41:28.701Z,63.06
2018-06-04T08:43:58.047Z,61.44
2018-06-04T08:46:27.192Z,61.42
2018-06-04T08:48:56.514Z,60.99
2018-06-04T08:51:25.818Z,58.95
2018-06-04T08:53:55.194Z,61.30
2018-06-04T08:56:24.477Z,62.65
2018-06-04T08:58:53.870Z,61.06
2018-06-04T09:01:22.326Z,62.84
2018-06-04T09:03:50.667Z,65.04
2018-06-04T09:06:19.385Z,63.01
2018-06-04T09:08:47.869Z,63.36
2018-06-04T09:11:16.580Z,60.66
2018-06-04T09:13:44.996Z,59.31
2018-06-04T09:16:13.418Z,58.87
2018-06-04T09:18:41.861Z,60.15
2018-06-04T09:21:10.206Z,62.17
2018-06-04T09:23:38.621Z,59.83
2018-06-04T09:26:07.170Z,59.48
2018-06-04T09:28:35.508Z,59.92
2018-06-04T09:31:04.742Z,57.64
2018-06-04T09:33:33.098Z,58.76
2018-06-04T09:36:01.430Z,56.75
2018-06-04T09:38:29.871Z,55.38
2018-06-04T09:40:59.125Z,56.25
2018-06-04T09:43:27.449Z,56.83
2018-06-04T09:45:55.811Z,56.90
2018-06-04T09:48:24.166Z,56.89
2018-06-04T09:50:52.593Z,56.47
2018-06-04T09:53:20.943Z,58.59
2018-06-04T09:55:49.692Z,55.40
2018-06-04T09:58:18.129Z,54.70
2018-06-04T10:00:46.506Z,51.92
2018-06-04T10:03:14.889Z,54.10
2018-06-04T10:05:43.320Z,53.11
2018-06-04T10:08:11.774Z,53.57
2018-06-04T10:10:42.725Z,54.21
2018-06-04T10:13:13.915Z,54.87
2018-06-04T10:15:46.089Z,56.23
2018-06-04T10:18:15.312Z,52.22
2018-06-04T10:20:43.747Z,53.18
2018-06-04T10:23:12.070Z,52.31
2018-06-04T10:25:40.441Z,52.65
2018-06-04T10:28:08.908Z,51.50
2018-06-04T10:30:38.273Z,54.25
2018-06-04T10:33:07.746Z,50.80
2018-06-04T10:35:37.266Z,53.48
2018-06-04T10:38:08.183Z,50.61
2018-06-04T10:40:38.758Z,52.05
2018-06-04T10:43:08.903Z,52.55
2018-06-04T10:45:37.846Z,51.17
2018-06-04T10:48:07.134Z,51.76
2018-06-04T10:50:37.005Z,52.86
2018-06-04T10:53:06.795Z,52.28
2018-06-04T10:55:36.264Z,51.68
2018-06-04T10:58:06.458Z,49.95
2018-06-04T11:00:34.797Z,48.38
2018-06-04T11:03:04.141Z,53.51
2018-06-04T11:05:33.552Z,51.90
2018-06-04T11:08:04.857Z,47.27
2018-06-04T11:10:34.061Z,46.48
2018-06-04T11:13:02.402Z,47.14
2018-06-04T11:15:32.172Z,46.33
2018-06-04T11:18:05.206Z,45.24
2018-06-04T11:20:34.550Z,45.03
2018-06-04T11:23:02.949Z,45.66
2018-06-04T11:25:33.141Z,45.44
2018-06-04T11:28:01.624Z,45.90
2018-06-04T11:30:29.992Z,46.48
2018-06-04T11:32:58.551Z,45.80
2018-06-04T11:35:26.921Z,47.11
2018-06-04T11:37:55.330Z,47.46
2018-06-04T11:40:24.712Z,47.88
2018-06-04T11:42:53.039Z,45.48
2018-06-04T11:45:21.419Z,46.25
2018-06-04T11:48:02.384Z,45.53
2018-06-04T11:50:33.933Z,46.87
2018-06-04T11:53:05.297Z,43.76
2018-06-04T11:55:33.779Z,44.78
2018-06-04T11:58:03.932Z,44.19
2018-06-04T12:00:38.436Z,44.04
2018-06-04T12:03:11.273Z,44.36
2018-06-04T12:05:39.709Z,47.36
2018-06-04T12:08:08.084Z,44.64
2018-06-04T12:10:36.481Z,46.07
2018-06-04T12:13:04.885Z,46.49
2018-06-04T12:15:33.265Z,45.89
2018-06-04T12:18:01.678Z,45.72
2018-06-04T12:20:30.048Z,45.21
2018-06-04T12:22:58.444Z,43.01
2018-06-04T12:25:27.031Z,45.34
2018-06-04T12:27:56.592Z,44.68
2018-06-04T12:30:25.844Z,43.58
2018-06-04T12:32:55.076Z,43.55
2018-06-04T12:35:24.301Z,39.92
2018-06-04T12:37:53.690Z,41.54
2018-06-04T12:40:22.946Z,46.26
2018-06-04T12:42:51.332Z,42.51
2018-06-04T12:45:19.686Z,44.16
2018-06-04T12:47:48.961Z,45.18
2018-06-04T12:50:17.285Z,44.76
2018-06-04T12:52:45.620Z,45.71
2018-06-04T12:55:13.944Z,46.40
2018-06-04T12:57:42.290Z,45.30
2018-06-04T13:00:10.665Z,46.92
2018-06-04T13:02:38.980Z,46.41
2018-06-04T13:05:07.389Z,45.14
2018-06-04T13:07:35.798Z,44.50
2018-06-04T13:10:04.138Z,42.52
2018-06-04T13:12:32.525Z,43.08
2018-06-04T13:15:01.238Z,43.38
2018-06-04T13:17:29.557Z,43.44
2018-06-04T13:19:57.884Z,43.39
2018-06-04T13:22:26.213Z,43.36
2018-06-04T13:24:54.558Z,44.54
2018-06-04T13:27:22.917Z,46.50
2018-06-04T13:29:51.311Z,46.03
2018-06-04T13:32:19.625Z,46.63
2018-06-04T13:34:54.710Z,44.39
2018-06-04T13:37:23.114Z,43.62
2018-06-04T13:39:51.440Z,45.14
2018-06-04T13:42:19.914Z,45.23
2018-06-04T13:44:48.363Z,43.86
2018-06-04T13:47:16.725Z,44.27
2018-06-04T13:49:45.153Z,44.54
2018-06-04T13:52:13.493Z,44.21
2018-06-04T13:54:41.822Z,44.38
2018-06-04T13:57:10.142Z,46.13
2018-06-04T13:59:40.342Z,43.65
2018-06-04T14:02:08.696Z,44.25
2018-06-04T14:04:37.031Z,42.83
2018-06-04T14:07:05.355Z,43.24
2018-06-04T14:09:33.821Z,41.31
2018-06-04T14:12:02.149Z,44.17
2018-06-04T14:14:30.468Z,40.19
2018-06-04T14:16:58.800Z,40.73
2018-06-04T14:19:27.186Z,40.73
2018-06-04T14:21:55.520Z,41.61
2018-06-04T14:24:23.860Z,41.38
2018-06-04T14:26:52.188Z,41.83
2018-06-04T14:29:21.626Z,39.49
2018-06-04T14:31:50.810Z,39.47
2018-06-04T14:34:19.120Z,39.24
2018-06-04T14:36:47.441Z,38.63
2018-06-04T14:39:16.643Z,38.73
2018-06-04T14:41:45.829Z,37.04
2018-06-04T14:44:15.223Z,37.61
2018-06-04T14:46:44.456Z,39.55
2018-06-04T14:49:13.652Z,40.06
2018-06-04T14:51:43.019Z,36.62
2018-06-04T14:54:12.350Z,38.47
2018-06-04T14:56:41.713Z,39.61
2018-06-04T14:59:10.945Z,41.44
2018-06-04T15:01:40.194Z,36.51
2018-06-04T15:04:09.405Z,35.09
2018-06-04T15:06:38.740Z,35.32
2018-06-04T15:09:08.518Z,37.40
2018-06-04T15:11:37.721Z,38.20
2018-06-04T15:14:06.184Z,39.36
2018-06-04T15:16:35.541Z,41.00
2018-06-04T15:19:03.861Z,40.11
2018-06-04T15:21:33.192Z,39.23
2018-06-04T15:24:02.465Z,38.85
2018-06-04T15:26:31.751Z,38.60
2018-06-04T15:29:00.068Z,39.33
2018-06-04T15:31:28.424Z,43.06
2018-06-04T15:33:57.634Z,41.09
2018-06-04T15:36:25.997Z,35.67
2018-06-04T15:38:54.324Z,34.63
2018-06-04T15:41:22.656Z,38.28
2018-06-04T15:43:51.101Z,38.35
2018-06-04T15:46:19.416Z,38.58
2018-06-04T15:48:47.768Z,39.22
2018-06-04T15:51:16.104Z,40.28
2018-06-04T15:53:44.437Z,41.75
2018-06-04T15:56:12.757Z,41.64
2018-06-04T15:58:42.262Z,41.51
2018-06-04T16:01:10.577Z,42.85
2018-06-04T16:03:38.953Z,43.57
2018-06-04T16:06:07.268Z,44.96
2018-06-04T16:08:35.621Z,44.12
2018-06-04T16:11:03.956Z,46.53
2018-06-04T16:13:32.269Z,45.86
2018-06-04T16:16:00.597Z,45.71
2018-06-04T16:18:28.977Z,46.77
2018-06-04T16:20:57.384Z,48.55
2018-06-04T16:23:25.749Z,48.02
2018-06-04T16:25:54.181Z,48.93
2018-06-04T16:28:22.494Z,48.03
2018-06-04T16:30:50.927Z,47.85
2018-06-04T16:33:19.229Z,48.89
2018-06-04T16:35:47.580Z,48.95
2018-06-04T16:38:15.886Z,47.44
2018-06-04T16:40:44.351Z,50.35
2018-06-04T16:43:12.773Z,49.41
2018-06-04T16:45:41.092Z,50.27
2018-06-04T16:48:09.395Z,50.76
2018-06-04T16:50:37.712Z,51.60
2018-06-04T16:53:06.091Z,52.30
2018-06-04T16:55:34.397Z,52.60
2018-06-04T16:58:02.712Z,53.49
2018-06-04T17:00:53.346Z,52.10
2018-06-04T17:03:22.771Z,51.61
2018-06-04T17:05:52.168Z,51.58
2018-06-04T17:08:21.484Z,52.43
2018-06-04T17:10:50.753Z,53.48
2018-06-04T17:13:19.058Z,52.25
2018-06-04T17:15:47.454Z,53.62
2018-06-04T17:18:15.818Z,54.17
2018-06-04T17:20:44.142Z,57.92
2018-06-04T17:23:13.495Z,58.41
2018-06-04T17:25:42.752Z,54.02
2018-06-04T17:28:12.098Z,53.56
2018-06-04T17:30:41.350Z,54.01
2018-06-04T17:33:10.555Z,57.53
2018-06-04T17:35:39.941Z,54.12
2018-06-04T17:38:09.199Z,55.99
2018-06-04T17:40:37.578Z,54.56
2018-06-04T17:43:05.929Z,56.34
2018-06-04T17:45:34.246Z,58.06
2018-06-04T17:48:02.622Z,55.94
2018-06-04T17:50:31.009Z,55.30
2018-06-04T17:52:59.361Z,57.04
2018-06-04T17:55:28.682Z,56.76
2018-06-04T17:57:57.560Z,56.17
2018-06-04T18:00:25.932Z,56.10
2018-06-04T18:02:55.161Z,57.85
2018-06-04T18:05:24.636Z,59.42
2018-06-04T18:07:53.766Z,57.62
2018-06-04T18:10:22.576Z,58.07
2018-06-04T18:12:50.928Z,58.51
2018-06-04T18:15:20.161Z,59.22
2018-06-04T18:17:49.639Z,58.78
2018-06-04T18:20:19.547Z,59.20
2018-06-04T18:22:48.754Z,59.60
2018-06-04T18:25:17.073Z,61.22
2018-06-04T18:27:46.555Z,59.95
2018-06-04T18:30:14.888Z,60.83
2018-06-04T18:32:44.265Z,60.08
2018-06-04T18:35:12.699Z,59.98
2018-06-04T18:37:41.083Z,60.71
2018-06-04T18:40:09.683Z,61.40
2018-06-04T18:42:38.070Z,61.02
2018-06-04T18:45:06.399Z,61.56
2018-06-04T18:47:35.633Z,61.96
2018-06-04T18:50:04.017Z,62.37
2018-06-04T18:52:32.373Z,63.39
2018-06-04T18:55:00.773Z,61.49
2018-06-04T18:57:29.136Z,62.27
2018-06-04T18:59:57.557Z,62.55
2018-06-04T19:02:26.001Z,62.02
2018-06-04T19:04:55.322Z,63.25
2018-06-04T19:07:24.554Z,62.55
2018-06-04T19:09:53.280Z,63.01
2018-06-04T19:12:21.669Z,64.20
2018-06-04T19:14:50.151Z,64.83
2018-06-04T19:17:18.522Z,63.74
2018-06-04T19:19:46.873Z,65.95
2018-06-04T19:22:15.297Z,65.39
2018-06-04T19:24:44.773Z,65.58
2018-06-04T19:27:14.186Z,65.42
2018-06-04T19:29:43.600Z,65.90
2018-06-04T19:32:11.994Z,66.93
2018-06-04T19:34:40.361Z,67.22
2018-06-04T19:37:08.838Z,67.45
2018-06-04T19:39:37.326Z,68.85
2018-06-04T19:42:05.789Z,69.06
2018-06-04T19:44:34.805Z,67.91
2018-06-04T19:47:03.239Z,69.07
2018-06-04T19:49:31.604Z,69.58
2018-06-04T19:51:59.921Z,69.49
2018-06-04T19:54:28.334Z,69.84
2018-06-04T19:56:56.694Z,71.89
2018-06-04T19:59:25.087Z,72.73
2018-06-04T20:01:53.459Z,72.61
2018-06-04T20:04:21.842Z,72.63
2018-06-04T20:06:50.232Z,72.87
2018-06-04T20:09:18.547Z,73.26
2018-06-04T20:11:46.853Z,72.48
2018-06-04T20:14:16.105Z,73.62
2018-06-04T20:16:44.469Z,73.79
2018-06-04T20:19:12.782Z,74.21
2018-06-04T20:21:41.167Z,75.12
2018-06-04T20:24:09.518Z,75.24
2018-06-04T20:26:38.796Z,75.72
2018-06-04T20:29:08.029Z,75.11
2018-06-04T20:31:36.373Z,75.37
2018-06-04T20:34:04.839Z,75.53
2018-06-04T20:36:33.176Z,76.85
2018-06-04T20:39:01.520Z,77.50
2018-06-04T20:41:30.862Z,76.85
2018-06-04T20:43:59.203Z,77.72
2018-06-04T20:46:27.573Z,77.51
2018-06-04T20:48:55.876Z,77.67
2018-06-04T20:51:24.198Z,78.23
2018-06-04T20:53:52.531Z,79.53
2018-06-04T20:56:20.862Z,78.86
2018-06-04T20:58:49.169Z,79.73
2018-06-04T21:01:17.628Z,80.88
2018-06-04T21:03:45.941Z,80.31
2018-06-04T21:06:15.329Z,80.10
2018-06-04T21:08:44.565Z,81.97
2018-06-04T21:11:12.886Z,82.56
2018-06-04T21:13:41.289Z,83.75
2018-06-04T21:16:09.644Z,82.86
2018-06-04T21:18:37.988Z,82.71
2018-06-04T21:21:06.321Z,82.61
2018-06-04T21:23:34.636Z,83.92
2018-06-04T21:26:04.008Z,84.07
2018-06-04T21:28:33.289Z,83.88
2018-06-04T21:31:02.633Z,85.24
2018-06-04T21:33:31.076Z,85.11
2018-06-04T21:35:59.396Z,85.69
2018-06-04T21:38:28.717Z,85.70
2018-06-04T21:40:57.065Z,86.69
2018-06-04T21:43:25.412Z,86.46
2018-06-04T21:45:53.760Z,86.95
2018-06-04T21:48:23.089Z,86.52
2018-06-04T21:50:51.491Z,86.62
2018-06-04T21:53:19.834Z,86.57
2018-06-04T21:55:48.200Z,87.02
2018-06-04T21:58:16.533Z,88.16
2018-06-04T22:00:44.924Z,87.52
2018-06-04T22:03:13.494Z,87.43
2018-06-04T22:05:41.817Z,88.71
2018-06-04T22:08:10.142Z,88.53
2018-06-04T22:10:39.500Z,88.37
2018-06-04T22:13:08.006Z,88.92
2018-06-04T22:15:36.328Z,88.97
2018-06-04T22:18:04.865Z,89.64
2018-06-04T22:20:33.237Z,89.78
2018-06-04T22:23:01.659Z,90.02
2018-06-04T22:25:30.880Z,90.58
2018-06-04T22:27:59.184Z,90.56
2018-06-04T22:30:27.715Z,90.90
2018-06-04T22:32:56.305Z,91.49
2018-06-04T22:35:25.874Z,91.53
2018-06-04T22:37:54.279Z,92.33
2018-06-04T22:40:22.624Z,92.16
2018-06-04T22:42:51.884Z,93.27
2018-06-04T22:45:21.121Z,95.08
2018-06-04T22:47:50.374Z,94.20
2018-06-04T22:50:18.700Z,93.05
2018-06-04T22:52:48.200Z,92.13
2018-06-04T22:55:16.540Z,92.08
2018-06-04T22:57:44.856Z,91.92
2018-06-04T23:00:33.061Z,92.38
2018-06-04T23:03:01.869Z,92.06
2018-06-04T23:05:30.277Z,92.49
2018-06-04T23:07:58.604Z,92.82
2018-06-04T23:10:26.965Z,92.71
2018-06-04T23:12:55.284Z,92.23
2018-06-04T23:15:23.648Z,93.05
2018-06-04T23:17:52.023Z,92.23
2018-06-04T23:20:20.349Z,92.47
2018-06-04T23:22:48.683Z,91.53
2018-06-04T23:25:17.044Z,92.70
2018-06-04T23:27:45.388Z,92.33
2018-06-04T23:30:13.719Z,92.38
2018-06-04T23:32:42.045Z,92.19
2018-06-04T23:35:10.376Z,92.74
2018-06-04T23:37:39.591Z,92.48
2018-06-04T23:40:07.951Z,92.32
2018-06-04T23:42:37.299Z,91.36
2018-06-04T23:45:05.632Z,92.62
2018-06-04T23:47:34.060Z,92.00
2018-06-04T23:50:02.504Z,92.06
2018-06-04T23:52:30.827Z,92.13
2018-06-04T23:54:59.206Z,92.56
2018-06-04T23:57:27.532Z,91.97
2018-06-04T23:59:56.877Z,92.37
